Welcome to the New NWS' Forecast!
Most changes are behind the scenes, but click here for differences you might notice.

Terminal Aerodrome Forecast (TAF)

Issued by National Weather Service (NWS)

                            
000
FTUS42 KMFL 161459 AAA
TAFMIA
TAF AMD
KMIA 161459Z 1615/1718 09015KT P6SM SCT025 BKN035
     FM170000 09011KT P6SM SCT025
     FM171500 11014KT P6SM SCT025=